createdAt,value
2023-03-18T00:00:49.564Z,1.95
2023-03-18T00:03:16.288Z,2.00
2023-03-18T00:05:43.001Z,1.52
2023-03-18T00:08:09.773Z,1.50
2023-03-18T00:10:36.307Z,1.30
2023-03-18T00:13:04.519Z,0.73
2023-03-18T00:15:31.579Z,0.90
2023-03-18T00:17:59.789Z,0.70
2023-03-18T00:20:38.381Z,0.88
2023-03-18T00:23:08.635Z,1.05
2023-03-18T00:25:36.642Z,0.90
2023-03-18T00:28:07.415Z,0.82
2023-03-18T00:30:38.503Z,0.90
2023-03-18T00:33:05.285Z,1.35
2023-03-18T00:35:32.342Z,1.15
2023-03-18T00:38:00.419Z,1.05
2023-03-18T00:40:30.962Z,0.90
2023-03-18T00:43:07.663Z,0.80
2023-03-18T00:45:37.672Z,1.00
2023-03-18T00:48:04.758Z,1.05
2023-03-18T00:50:31.988Z,0.85
2023-03-18T00:52:59.605Z,0.85
2023-03-18T00:55:27.528Z,1.02
2023-03-18T00:57:54.460Z,1.33
2023-03-18T01:00:21.428Z,0.80
2023-03-18T01:02:49.264Z,0.73
2023-03-18T01:05:16.517Z,0.85
2023-03-18T01:07:43.573Z,1.08
2023-03-18T01:10:12.541Z,1.13
2023-03-18T01:12:41.140Z,0.93
2023-03-18T01:15:12.679Z,0.88
2023-03-18T01:17:39.322Z,0.88
2023-03-18T01:20:06.753Z,0.82
2023-03-18T01:22:33.278Z,1.35
2023-03-18T01:24:59.880Z,0.93
2023-03-18T01:27:33.427Z,0.95
2023-03-18T01:30:00.678Z,1.08
2023-03-18T01:32:28.813Z,0.75
2023-03-18T01:34:55.942Z,0.70
2023-03-18T01:39:58.330Z,0.90
2023-03-18T01:42:24.924Z,0.70
2023-03-18T01:45:21.804Z,1.00
2023-03-18T01:47:51.620Z,0.90
2023-03-18T01:50:23.071Z,0.77
2023-03-18T01:52:58.131Z,1.17
2023-03-18T01:57:54.565Z,0.77
2023-03-18T02:00:21.977Z,0.90
2023-03-18T02:02:50.782Z,0.75
2023-03-18T02:05:22.255Z,1.50
2023-03-18T02:07:48.771Z,1.23
2023-03-18T02:10:27.942Z,1.20
2023-03-18T02:13:01.370Z,1.45
2023-03-18T02:15:35.505Z,1.27
2023-03-18T02:18:33.760Z,0.93
2023-03-18T02:21:18.950Z,1.35
2023-03-18T02:24:13.852Z,1.35
2023-03-18T02:26:50.381Z,1.58
2023-03-18T02:29:24.651Z,1.42
2023-03-18T02:32:02.799Z,1.65
2023-03-18T02:34:30.269Z,1.48
2023-03-18T02:36:57.869Z,1.95
2023-03-18T02:39:24.653Z,1.63
2023-03-18T02:41:53.312Z,1.85
2023-03-18T02:44:21.246Z,1.38
2023-03-18T02:47:18.731Z,2.42
2023-03-18T02:49:45.476Z,1.60
2023-03-18T02:52:13.666Z,1.73
2023-03-18T02:54:40.327Z,1.83
2023-03-18T02:57:07.456Z,1.20
2023-03-18T02:59:34.491Z,1.30
2023-03-18T03:02:02.130Z,1.33
2023-03-18T03:04:28.806Z,1.35
2023-03-18T03:06:56.785Z,1.23
2023-03-18T03:09:36.869Z,1.30
2023-03-18T03:12:05.189Z,1.55
2023-03-18T03:14:32.114Z,1.60
2023-03-18T03:17:01.353Z,1.40
2023-03-18T03:19:27.959Z,1.67
2023-03-18T03:21:55.401Z,1.63
2023-03-18T03:24:23.740Z,1.75
2023-03-18T03:26:50.441Z,1.38
2023-03-18T03:29:17.000Z,1.48
2023-03-18T03:31:43.561Z,1.40
2023-03-18T03:34:10.716Z,1.80
2023-03-18T03:36:37.434Z,1.60
2023-03-18T03:39:04.252Z,2.30
2023-03-18T03:41:34.479Z,2.15
2023-03-18T03:44:01.193Z,1.88
2023-03-18T03:46:27.833Z,1.30
2023-03-18T03:48:54.880Z,1.55
2023-03-18T03:51:22.125Z,1.92
2023-03-18T03:53:48.770Z,1.50
2023-03-18T03:56:15.514Z,1.48
2023-03-18T03:58:42.293Z,1.27
2023-03-18T04:01:08.886Z,1.25
2023-03-18T04:03:35.570Z,1.33
2023-03-18T04:06:06.725Z,1.58
2023-03-18T04:08:35.243Z,1.52
2023-03-18T04:11:03.415Z,1.77
2023-03-18T04:13:31.228Z,1.20
2023-03-18T04:15:57.771Z,1.63
2023-03-18T04:18:24.456Z,1.67
2023-03-18T04:20:50.992Z,2.00
2023-03-18T04:23:35.102Z,1.77
2023-03-18T04:26:01.838Z,1.85
2023-03-18T04:28:28.512Z,1.38
2023-03-18T04:30:55.439Z,1.70
2023-03-18T04:33:22.225Z,2.05
2023-03-18T04:35:49.450Z,1.95
2023-03-18T04:38:18.321Z,2.05
2023-03-18T04:40:46.279Z,1.98
2023-03-18T04:43:13.098Z,7.10
2023-03-18T04:45:39.985Z,7.15
2023-03-18T04:48:11.395Z,6.88
2023-03-18T04:50:40.875Z,5.60
2023-03-18T04:53:11.711Z,4.60
2023-03-18T04:55:38.382Z,3.78
2023-03-18T04:58:08.333Z,3.42
2023-03-18T05:00:39.560Z,5.78
2023-03-18T05:03:18.431Z,4.07
2023-03-18T05:05:45.576Z,3.85
2023-03-18T05:08:15.250Z,4.10
2023-03-18T05:10:42.668Z,3.58
2023-03-18T05:13:12.609Z,3.33
2023-03-18T05:15:39.197Z,3.75
2023-03-18T05:18:06.366Z,2.95
2023-03-18T05:20:33.875Z,4.15
2023-03-18T05:23:03.130Z,5.43
2023-03-18T05:25:49.022Z,3.65
2023-03-18T05:28:16.321Z,4.10
2023-03-18T05:30:50.500Z,4.55
2023-03-18T05:33:20.926Z,4.10
2023-03-18T05:35:53.526Z,4.30
2023-03-18T05:38:25.293Z,3.63
2023-03-18T05:40:52.154Z,3.03
2023-03-18T05:43:24.651Z,3.40
2023-03-18T05:45:55.129Z,2.15
2023-03-18T05:48:31.644Z,2.00
2023-03-18T05:51:04.312Z,2.67
2023-03-18T05:53:32.018Z,2.28
2023-03-18T05:56:08.722Z,2.65
2023-03-18T05:58:35.403Z,2.17
2023-03-18T06:01:27.532Z,2.30
2023-03-18T06:03:55.193Z,2.60
2023-03-18T06:06:22.211Z,2.13
2023-03-18T06:08:48.932Z,1.98
2023-03-18T06:11:15.785Z,2.25
2023-03-18T06:13:43.356Z,1.52
2023-03-18T06:16:10.837Z,1.70
2023-03-18T06:18:39.045Z,1.10
2023-03-18T06:21:09.054Z,1.23
2023-03-18T06:23:36.502Z,2.15
2023-03-18T06:26:04.398Z,1.30
2023-03-18T06:28:36.155Z,1.38
2023-03-18T06:31:08.691Z,1.33
2023-03-18T06:33:35.287Z,2.35
2023-03-18T06:36:02.980Z,2.83
2023-03-18T06:38:31.434Z,2.15
2023-03-18T06:40:59.875Z,2.33
2023-03-18T06:43:27.141Z,2.03
2023-03-18T06:45:54.208Z,1.98
2023-03-18T06:48:21.007Z,1.95
2023-03-18T06:50:49.760Z,1.48
2023-03-18T06:55:49.973Z,2.90
2023-03-18T06:58:19.898Z,3.75
2023-03-18T07:00:56.602Z,3.50
2023-03-18T07:03:28.145Z,3.58
2023-03-18T07:05:55.950Z,3.55
2023-03-18T07:08:23.032Z,3.88
2023-03-18T07:10:52.678Z,3.58
2023-03-18T07:13:20.359Z,3.50
2023-03-18T07:15:48.094Z,3.45
2023-03-18T07:18:15.055Z,3.22
2023-03-18T07:20:41.962Z,3.45
2023-03-18T07:23:09.957Z,3.22
2023-03-18T07:25:36.873Z,3.83
2023-03-18T07:28:04.944Z,4.07
2023-03-18T07:30:31.834Z,3.30
2023-03-18T07:32:58.713Z,3.53
2023-03-18T07:35:26.677Z,3.28
2023-03-18T07:37:53.237Z,3.88
2023-03-18T07:40:20.809Z,3.65
2023-03-18T07:42:48.102Z,3.35
2023-03-18T07:45:14.641Z,4.93
2023-03-18T07:47:41.641Z,5.13
2023-03-18T07:50:09.671Z,3.38
2023-03-18T07:52:37.499Z,3.55
2023-03-18T07:55:04.687Z,4.38
2023-03-18T07:57:31.477Z,5.05
2023-03-18T07:59:58.052Z,4.53
2023-03-18T08:02:25.373Z,4.72
2023-03-18T08:04:52.656Z,3.58
2023-03-18T08:07:19.929Z,3.92
2023-03-18T08:09:46.877Z,4.78
2023-03-18T08:12:18.764Z,3.85
2023-03-18T08:14:46.697Z,2.63
2023-03-18T08:17:13.337Z,3.35
2023-03-18T08:19:40.072Z,4.00
2023-03-18T08:22:06.734Z,3.30
2023-03-18T08:24:33.525Z,3.40
2023-03-18T08:27:01.715Z,3.35
2023-03-18T08:29:28.257Z,2.92
2023-03-18T08:31:54.861Z,2.78
2023-03-18T08:34:21.898Z,2.17
2023-03-18T08:36:48.431Z,3.03
2023-03-18T08:39:15.910Z,1.67
2023-03-18T08:41:44.795Z,2.75
2023-03-18T08:44:12.468Z,2.60
2023-03-18T08:46:39.121Z,2.60
2023-03-18T08:49:06.963Z,2.70
2023-03-18T08:51:34.454Z,2.83
2023-03-18T08:54:01.072Z,2.53
2023-03-18T08:56:27.848Z,3.70
2023-03-18T08:58:54.594Z,3.22
2023-03-18T09:01:22.368Z,2.60
2023-03-18T09:03:50.698Z,2.53
2023-03-18T09:06:17.814Z,2.25
2023-03-18T09:08:44.820Z,2.20
2023-03-18T09:11:11.536Z,1.65
2023-03-18T09:13:39.304Z,2.15
2023-03-18T09:16:07.294Z,1.92
2023-03-18T09:18:35.338Z,2.70
2023-03-18T09:21:03.308Z,2.88
2023-03-18T09:23:30.083Z,2.22
2023-03-18T09:25:57.236Z,2.67
2023-03-18T09:28:23.970Z,1.70
2023-03-18T09:30:51.159Z,2.95
2023-03-18T09:33:17.921Z,2.58
2023-03-18T09:35:44.853Z,2.15
2023-03-18T09:38:16.701Z,2.20
2023-03-18T09:41:12.619Z,1.83
2023-03-18T09:44:04.033Z,2.30
2023-03-18T09:46:57.130Z,2.58
2023-03-18T09:49:38.986Z,1.63
2023-03-18T09:52:27.128Z,1.30
2023-03-18T09:55:03.379Z,1.30
2023-03-18T09:57:35.578Z,1.25
2023-03-18T10:00:09.190Z,0.82
2023-03-18T10:02:42.333Z,1.25
2023-03-18T10:05:19.647Z,1.38
2023-03-18T10:07:49.962Z,0.55
2023-03-18T10:10:27.977Z,0.70
2023-03-18T10:13:08.505Z,1.23
2023-03-18T10:15:42.684Z,0.80
2023-03-18T10:18:26.613Z,1.10
2023-03-18T10:21:05.440Z,1.10
2023-03-18T10:24:08.645Z,1.08
2023-03-18T10:26:45.109Z,1.20
2023-03-18T10:29:32.064Z,1.35
2023-03-18T10:32:03.467Z,1.20
2023-03-18T10:34:46.408Z,0.98
2023-03-18T10:37:35.909Z,1.20
2023-03-18T10:40:02.946Z,1.00
2023-03-18T10:42:33.008Z,0.98
2023-03-18T10:45:15.455Z,1.50
2023-03-18T10:47:47.025Z,0.95
2023-03-18T10:50:23.932Z,0.93
2023-03-18T10:53:04.604Z,0.95
2023-03-18T10:55:38.152Z,1.02
2023-03-18T10:58:15.416Z,0.68
2023-03-18T11:00:42.723Z,1.13
2023-03-18T11:12:05.757Z,1.10
2023-03-18T11:14:37.674Z,1.10
2023-03-18T11:17:17.899Z,0.85
2023-03-18T11:19:49.873Z,1.02
2023-03-18T11:22:23.914Z,1.08
2023-03-18T11:25:12.460Z,1.10
2023-03-18T11:27:41.629Z,0.95
2023-03-18T11:30:34.144Z,0.93
2023-03-18T11:33:10.503Z,1.10
2023-03-18T11:35:46.007Z,0.85
2023-03-18T11:38:34.055Z,1.05
2023-03-18T11:41:16.973Z,1.30
2023-03-18T11:44:05.628Z,0.60
2023-03-18T11:46:43.457Z,1.02
2023-03-18T11:49:15.572Z,0.70
2023-03-18T11:51:51.276Z,0.90
2023-03-18T11:54:34.994Z,0.65
2023-03-18T11:57:13.371Z,0.60
2023-03-18T11:59:56.498Z,0.80
2023-03-18T12:02:29.144Z,1.42
2023-03-18T12:05:03.787Z,0.70
2023-03-18T12:08:18.344Z,1.02
2023-03-18T12:10:51.303Z,0.90
2023-03-18T12:13:25.491Z,1.13
2023-03-18T12:16:01.492Z,0.60
2023-03-18T12:18:31.092Z,0.82
2023-03-18T12:21:09.941Z,0.93
2023-03-18T12:24:11.954Z,0.82
2023-03-18T12:27:27.372Z,0.80
2023-03-18T12:30:11.667Z,1.13
2023-03-18T12:32:42.612Z,1.02
2023-03-18T12:35:24.294Z,1.45
2023-03-18T12:38:00.071Z,0.98
2023-03-18T12:40:42.446Z,0.80
2023-03-18T12:43:28.450Z,0.82
2023-03-18T12:46:03.086Z,0.82
2023-03-18T12:48:44.170Z,1.17
2023-03-18T12:51:25.323Z,0.90
2023-03-18T12:54:10.207Z,0.80
2023-03-18T12:56:43.913Z,1.52
2023-03-18T13:02:07.332Z,0.70
2023-03-18T13:04:39.316Z,1.08
2023-03-18T13:07:16.519Z,0.90
2023-03-18T13:10:15.724Z,0.70
2023-03-18T13:12:44.308Z,0.82
2023-03-18T13:15:35.813Z,0.70
2023-03-18T13:18:36.938Z,0.90
2023-03-18T13:21:05.442Z,1.00
2023-03-18T13:24:00.139Z,0.80
2023-03-18T13:26:51.126Z,0.50
2023-03-18T13:29:53.327Z,0.90
2023-03-18T13:32:22.907Z,1.23
2023-03-18T13:35:20.637Z,0.52
2023-03-18T13:38:17.300Z,1.00
2023-03-18T13:41:12.068Z,0.93
2023-03-18T13:43:42.842Z,1.40
2023-03-18T13:46:23.731Z,0.95
2023-03-18T13:48:59.664Z,0.70
2023-03-18T13:51:29.376Z,0.70
2023-03-18T13:54:00.592Z,1.00
2023-03-18T13:56:48.509Z,1.17
2023-03-18T13:59:35.308Z,0.70
2023-03-18T14:02:23.737Z,0.73
2023-03-18T14:04:52.099Z,1.30
2023-03-18T14:07:21.107Z,0.90
2023-03-18T14:10:15.272Z,1.02
2023-03-18T14:12:47.419Z,0.95
2023-03-18T14:15:14.678Z,0.75
2023-03-18T14:17:48.548Z,0.80
2023-03-18T14:20:15.000Z,0.80
2023-03-18T14:22:42.741Z,0.43
2023-03-18T14:25:18.260Z,0.80
2023-03-18T14:27:47.671Z,0.70
2023-03-18T14:30:29.583Z,1.00
2023-03-18T14:33:05.246Z,0.65
2023-03-18T14:36:01.883Z,0.82
2023-03-18T14:38:43.013Z,1.05
2023-03-18T14:41:32.545Z,1.65
2023-03-18T14:44:09.099Z,0.82
2023-03-18T14:46:43.595Z,1.13
2023-03-18T14:49:44.683Z,1.05
2023-03-18T14:52:39.818Z,1.00
2023-03-18T14:55:17.170Z,1.10
2023-03-18T14:57:44.917Z,1.45
2023-03-18T15:00:16.608Z,1.08
2023-03-18T15:02:45.257Z,0.73
2023-03-18T15:05:19.240Z,1.13
2023-03-18T15:07:51.299Z,1.27
2023-03-18T15:10:32.897Z,1.02
2023-03-18T15:13:14.733Z,0.95
2023-03-18T15:15:44.570Z,1.00
2023-03-18T15:18:20.640Z,1.27
2023-03-18T15:20:51.247Z,1.00
2023-03-18T15:23:24.459Z,0.95
2023-03-18T15:25:51.500Z,1.25
2023-03-18T15:28:21.505Z,1.00
2023-03-18T15:30:54.488Z,1.23
2023-03-18T15:33:29.552Z,0.52
2023-03-18T15:36:03.247Z,0.82
2023-03-18T15:41:02.909Z,0.98
2023-03-18T15:43:40.291Z,2.25
2023-03-18T15:46:28.575Z,0.85
2023-03-18T15:48:56.556Z,0.80
2023-03-18T15:51:42.339Z,1.30
2023-03-18T15:54:16.433Z,0.65
2023-03-18T15:56:46.490Z,0.63
2023-03-18T15:59:14.430Z,1.00
2023-03-18T16:01:40.979Z,1.20
2023-03-18T16:04:16.549Z,1.17
2023-03-18T16:06:44.397Z,0.88
2023-03-18T16:09:15.790Z,1.00
2023-03-18T16:11:43.663Z,0.68
2023-03-18T16:14:16.019Z,2.55
2023-03-18T16:16:42.581Z,1.15
2023-03-18T16:19:25.018Z,1.05
2023-03-18T16:21:52.797Z,1.33
2023-03-18T16:24:20.076Z,0.90
2023-03-18T16:26:47.052Z,1.00
2023-03-18T16:29:33.584Z,0.88
2023-03-18T16:32:01.087Z,1.02
2023-03-18T16:34:27.942Z,1.00
2023-03-18T16:36:55.271Z,1.58
2023-03-18T16:39:34.043Z,0.95
2023-03-18T16:42:02.253Z,1.15
2023-03-18T16:44:28.811Z,0.88
2023-03-18T16:46:57.562Z,0.60
2023-03-18T16:49:29.238Z,0.70
2023-03-18T16:51:56.866Z,0.85
2023-03-18T16:54:26.458Z,0.80
2023-03-18T16:57:02.736Z,0.75
2023-03-18T16:59:33.661Z,1.20
2023-03-18T17:02:00.703Z,0.70
2023-03-18T17:04:35.613Z,1.00
2023-03-18T17:07:04.857Z,8.05
2023-03-18T17:09:31.991Z,4.75
2023-03-18T17:12:03.050Z,2.55
2023-03-18T17:14:37.735Z,1.67
2023-03-18T17:17:18.215Z,4.38
2023-03-18T17:19:44.762Z,2.03
2023-03-18T17:22:21.633Z,3.35
2023-03-18T17:24:48.879Z,2.35
2023-03-18T17:27:22.095Z,2.40
2023-03-18T17:29:49.163Z,1.83
2023-03-18T17:32:16.602Z,1.83
2023-03-18T17:34:46.534Z,1.48
2023-03-18T17:37:13.011Z,3.10
2023-03-18T17:39:40.685Z,5.50
2023-03-18T17:42:29.681Z,2.60
2023-03-18T17:44:59.521Z,1.20
2023-03-18T17:47:26.255Z,0.98
2023-03-18T17:49:53.800Z,1.63
2023-03-18T17:52:21.729Z,1.23
2023-03-18T17:54:48.342Z,1.00
2023-03-18T17:57:19.346Z,1.33
2023-03-18T17:59:46.546Z,1.30
2023-03-18T18:02:17.649Z,2.53
2023-03-18T18:04:51.483Z,2.75
2023-03-18T18:07:21.834Z,1.55
2023-03-18T18:09:49.573Z,1.90
2023-03-18T18:12:25.012Z,4.13
2023-03-18T18:14:51.723Z,2.78
2023-03-18T18:17:19.167Z,2.38
2023-03-18T18:19:46.309Z,1.52
2023-03-18T18:22:23.003Z,1.08
2023-03-18T18:24:50.418Z,1.00
2023-03-18T18:27:17.087Z,1.40
2023-03-18T18:29:45.921Z,1.42
2023-03-18T18:32:13.181Z,14.25
2023-03-18T18:34:39.772Z,9.95
2023-03-18T18:37:06.696Z,2.40
2023-03-18T18:39:33.309Z,1.00
2023-03-18T18:41:59.816Z,1.52
2023-03-18T18:44:26.575Z,1.95
2023-03-18T18:46:53.830Z,1.40
2023-03-18T18:49:24.637Z,0.90
2023-03-18T18:51:56.118Z,1.27
2023-03-18T18:54:24.515Z,1.50
2023-03-18T18:56:54.042Z,1.00
2023-03-18T18:59:25.936Z,0.90
2023-03-18T19:01:55.462Z,0.88
2023-03-18T19:04:22.095Z,1.30
2023-03-18T19:06:50.800Z,1.40
2023-03-18T19:09:20.541Z,1.63
2023-03-18T19:11:47.575Z,2.20
2023-03-18T19:14:28.327Z,2.03
2023-03-18T19:16:58.554Z,0.80
2023-03-18T19:19:28.571Z,1.05
2023-03-18T19:21:55.433Z,1.20
2023-03-18T19:24:38.135Z,1.30
2023-03-18T19:27:19.886Z,1.38
2023-03-18T19:29:47.231Z,1.60
2023-03-18T19:32:19.694Z,1.05
2023-03-18T19:34:47.688Z,1.55
2023-03-18T19:37:22.541Z,1.35
2023-03-18T19:39:49.476Z,1.25
2023-03-18T19:42:18.373Z,0.73
2023-03-18T19:44:45.662Z,1.10
2023-03-18T19:47:19.164Z,1.00
2023-03-18T19:49:46.019Z,1.63
2023-03-18T19:52:17.012Z,1.10
2023-03-18T19:54:43.872Z,1.10
2023-03-18T19:57:20.640Z,1.20
2023-03-18T19:59:48.737Z,1.55
2023-03-18T20:02:28.737Z,1.58
2023-03-18T20:04:58.009Z,1.08
2023-03-18T20:07:27.432Z,0.80
2023-03-18T20:09:54.886Z,1.10
2023-03-18T20:12:37.627Z,1.35
2023-03-18T20:15:05.675Z,1.20
2023-03-18T20:17:37.316Z,0.80
2023-03-18T20:20:05.472Z,0.90
2023-03-18T20:22:41.104Z,1.00
2023-03-18T20:25:15.690Z,1.38
2023-03-18T20:27:42.383Z,7.95
2023-03-18T20:30:27.736Z,74.05
2023-03-18T20:32:54.752Z,43.58
2023-03-18T20:35:21.743Z,16.95
2023-03-18T20:37:48.626Z,27.45
2023-03-18T20:40:23.249Z,16.25
2023-03-18T20:42:50.107Z,8.73
2023-03-18T20:45:17.665Z,2.25
2023-03-18T20:47:45.553Z,1.33
2023-03-18T20:50:17.958Z,1.00
2023-03-18T20:52:47.341Z,1.13
2023-03-18T20:55:26.672Z,1.02
2023-03-18T20:57:54.217Z,1.52
2023-03-18T21:00:24.585Z,0.88
2023-03-18T21:02:53.502Z,1.02
2023-03-18T21:05:20.690Z,1.10
2023-03-18T21:07:48.108Z,1.77
2023-03-18T21:10:20.702Z,1.23
2023-03-18T21:12:48.353Z,1.15
2023-03-18T21:15:21.465Z,1.13
2023-03-18T21:17:49.018Z,0.85
2023-03-18T21:20:22.392Z,0.88
2023-03-18T21:22:50.754Z,1.08
2023-03-18T21:25:26.520Z,1.02
2023-03-18T21:27:53.758Z,1.02
2023-03-18T21:30:22.554Z,0.98
2023-03-18T21:32:50.936Z,1.30
2023-03-18T21:35:23.428Z,0.80
2023-03-18T21:37:50.878Z,1.20
2023-03-18T21:40:20.497Z,1.15
2023-03-18T21:42:48.988Z,1.00
2023-03-18T21:45:19.068Z,0.90
2023-03-18T21:47:45.991Z,0.95
2023-03-18T21:50:26.989Z,1.42
2023-03-18T21:52:54.654Z,0.93
2023-03-18T21:55:22.095Z,1.17
2023-03-18T21:57:49.526Z,1.30
2023-03-18T22:00:20.024Z,1.13
2023-03-18T22:02:47.991Z,1.25
2023-03-18T22:05:23.134Z,1.15
2023-03-18T22:07:51.471Z,1.38
2023-03-18T22:10:21.175Z,1.05
2023-03-18T22:12:47.763Z,0.90
2023-03-18T22:15:26.773Z,1.67
2023-03-18T22:17:53.371Z,1.95
2023-03-18T22:20:20.000Z,1.35
2023-03-18T22:22:47.274Z,1.30
2023-03-18T22:25:31.123Z,1.15
2023-03-18T22:27:58.530Z,1.25
2023-03-18T22:30:27.327Z,0.70
2023-03-18T22:32:54.924Z,1.17
2023-03-18T22:35:24.988Z,0.80
2023-03-18T22:37:52.389Z,1.20
2023-03-18T22:40:25.348Z,1.10
2023-03-18T22:42:57.020Z,1.85
2023-03-18T22:45:27.494Z,1.00
2023-03-18T22:48:16.927Z,0.85
2023-03-18T22:50:43.759Z,0.80
2023-03-18T22:53:19.327Z,1.23
2023-03-18T22:55:46.892Z,0.68
2023-03-18T22:58:19.700Z,1.17
2023-03-18T23:00:47.261Z,1.17
2023-03-18T23:03:18.451Z,1.35
2023-03-18T23:05:46.970Z,1.33
2023-03-18T23:08:14.676Z,1.48
2023-03-18T23:10:41.928Z,0.80
2023-03-18T23:13:25.636Z,0.98
2023-03-18T23:15:52.216Z,0.70
2023-03-18T23:18:19.898Z,0.90
2023-03-18T23:20:48.769Z,0.90
2023-03-18T23:23:16.150Z,1.65
2023-03-18T23:25:44.247Z,0.73
2023-03-18T23:28:11.236Z,1.10
2023-03-18T23:30:40.060Z,1.00
2023-03-18T23:33:07.797Z,1.08
2023-03-18T23:35:34.717Z,1.10
2023-03-18T23:38:01.461Z,0.90
2023-03-18T23:40:28.303Z,0.80
2023-03-18T23:42:55.300Z,0.93
2023-03-18T23:45:24.494Z,0.88
2023-03-18T23:47:51.611Z,1.02
2023-03-18T23:50:18.292Z,0.75
2023-03-18T23:52:44.906Z,0.80
2023-03-18T23:55:34.061Z,1.15
2023-03-18T23:58:01.344Z,0.90
